createdAt,value
2019-05-11T00:00:20.589Z,9.5
2019-05-11T00:01:29.923Z,9.5
2019-05-11T00:02:39.297Z,9.4
2019-05-11T00:03:48.847Z,9.4
2019-05-11T00:04:58.144Z,9.5
2019-05-11T00:06:07.974Z,9.4
2019-05-11T00:07:16.850Z,9.3
2019-05-11T00:08:26.151Z,9.3
2019-05-11T00:09:35.637Z,9.3
2019-05-11T00:10:45.215Z,9.3
2019-05-11T00:11:54.304Z,9.2
2019-05-11T00:13:03.815Z,9.1
2019-05-11T00:14:13.183Z,8.9
2019-05-11T00:15:22.596Z,8.9
2019-05-11T00:16:32.153Z,8.8
2019-05-11T00:17:41.143Z,8.8
2019-05-11T00:18:50.603Z,8.7
2019-05-11T00:19:59.965Z,8.6
2019-05-11T00:21:09.299Z,8.6
2019-05-11T00:22:18.680Z,8.6
2019-05-11T00:23:27.983Z,8.7
2019-05-11T00:24:37.741Z,8.8
2019-05-11T00:26:56.124Z,8.7
2019-05-11T00:28:05.760Z,8.7
2019-05-11T00:29:14.841Z,8.7
2019-05-11T00:30:24.257Z,8.8
2019-05-11T00:31:33.598Z,8.6
2019-05-11T00:32:43.155Z,8.6
2019-05-11T00:33:53.603Z,8.6
2019-05-11T00:35:01.641Z,8.5
2019-05-11T00:36:11.152Z,8.4
2019-05-11T00:37:20.351Z,8.3
2019-05-11T00:38:29.841Z,8.3
2019-05-11T00:39:39.066Z,8.3
2019-05-11T00:40:49.499Z,8.5
2019-05-11T00:41:57.999Z,8.4
2019-05-11T00:43:07.967Z,8.4
2019-05-11T00:44:16.505Z,8.3
2019-05-11T00:45:25.964Z,8.3
2019-05-11T00:46:35.242Z,8.2
2019-05-11T00:47:44.726Z,8.2
2019-05-11T00:48:54.202Z,8.2
2019-05-11T00:50:03.299Z,8.1
2019-05-11T00:51:12.639Z,8.1
2019-05-11T00:52:21.996Z,8.1
2019-05-11T00:53:31.400Z,8
2019-05-11T00:54:40.707Z,8
2019-05-11T00:55:50.073Z,8
2019-05-11T00:56:59.543Z,8
2019-05-11T00:58:08.760Z,8.1
2019-05-11T00:59:21.601Z,8.2
2019-05-11T01:00:27.466Z,8.3
2019-05-11T01:01:36.805Z,8.3
2019-05-11T01:02:46.274Z,8.3
2019-05-11T01:03:55.610Z,8.5
2019-05-11T01:05:04.901Z,8.5
2019-05-11T01:06:14.310Z,8.5
2019-05-11T01:07:23.598Z,8.6
2019-05-11T01:08:32.918Z,8.5
2019-05-11T01:09:42.797Z,8.6
2019-05-11T01:10:51.693Z,8.6
2019-05-11T01:12:01.025Z,8.5
2019-05-11T01:13:10.331Z,8.5
2019-05-11T01:14:20.030Z,8.5
2019-05-11T01:15:29.865Z,8.5
2019-05-11T01:16:38.870Z,8.4
2019-05-11T01:17:48.123Z,8.5
2019-05-11T01:18:57.434Z,8.4
2019-05-11T01:20:06.810Z,8.3
2019-05-11T01:21:16.268Z,8.4
2019-05-11T01:22:25.526Z,8.3
2019-05-11T01:23:34.853Z,8.3
2019-05-11T01:24:44.231Z,8.3
2019-05-11T01:25:53.701Z,8.2
2019-05-11T01:27:02.919Z,8.2
2019-05-11T01:28:12.289Z,8.2
2019-05-11T01:29:21.669Z,8.1
2019-05-11T01:30:30.996Z,8.2
2019-05-11T01:31:40.329Z,8.1
2019-05-11T01:32:49.860Z,8
2019-05-11T01:33:58.997Z,8.2
2019-05-11T01:35:08.538Z,8.1
2019-05-11T01:36:17.720Z,7.9
2019-05-11T01:37:27.059Z,7.8
2019-05-11T01:38:36.480Z,7.9
2019-05-11T01:39:46.168Z,7.8
2019-05-11T01:40:58.416Z,7.9
2019-05-11T01:42:04.480Z,7.7
2019-05-11T01:43:13.746Z,7.7
2019-05-11T01:44:23.125Z,7.8
2019-05-11T01:45:32.458Z,7.7
2019-05-11T01:46:41.770Z,7.7
2019-05-11T01:47:51.178Z,7.8
2019-05-11T01:49:00.448Z,7.7
2019-05-11T01:50:09.826Z,7.6
2019-05-11T01:51:19.157Z,7.6
2019-05-11T01:52:28.508Z,7.6
2019-05-11T01:53:37.907Z,7.5
2019-05-11T01:54:47.194Z,7.5
2019-05-11T01:55:56.526Z,7.4
2019-05-11T01:57:05.865Z,7.5
2019-05-11T01:58:15.213Z,7.6
2019-05-11T02:00:33.827Z,8
2019-05-11T02:01:43.310Z,8.1
2019-05-11T02:02:52.594Z,8.2
2019-05-11T02:04:01.877Z,8.2
2019-05-11T02:05:11.341Z,8.3
2019-05-11T02:06:20.486Z,8.2
2019-05-11T02:07:29.994Z,8.2
2019-05-11T02:08:39.200Z,8.3
2019-05-11T02:12:07.209Z,8.3
2019-05-11T02:13:16.565Z,8.2
2019-05-11T02:14:25.916Z,8.3
2019-05-11T02:15:35.229Z,8.3
2019-05-11T02:16:44.586Z,8.2
2019-05-11T02:17:53.992Z,8.2
2019-05-11T02:19:03.235Z,8.2
2019-05-11T02:20:12.587Z,8.1
2019-05-11T02:21:21.905Z,8.2
2019-05-11T02:22:31.311Z,8.1
2019-05-11T02:23:40.838Z,8.1
2019-05-11T02:24:50.003Z,8.1
2019-05-11T02:25:59.442Z,8.1
2019-05-11T02:27:09.264Z,8.2
2019-05-11T02:28:18.250Z,8.2
2019-05-11T02:29:27.477Z,8.1
2019-05-11T02:30:36.876Z,8.2
2019-05-11T02:31:46.221Z,8.2
2019-05-11T02:32:55.556Z,8.2
2019-05-11T02:34:04.906Z,8.2
2019-05-11T02:35:14.279Z,8.2
2019-05-11T02:36:23.529Z,8.2
2019-05-11T02:37:32.944Z,8.2
2019-05-11T02:38:42.463Z,8.1
2019-05-11T02:39:52.169Z,8
2019-05-11T02:41:00.890Z,8
2019-05-11T02:42:10.227Z,7.9
2019-05-11T02:43:19.576Z,7.9
2019-05-11T02:44:28.983Z,7.9
2019-05-11T02:45:38.324Z,8
2019-05-11T02:46:47.766Z,8.1
2019-05-11T02:47:57.062Z,8.1
2019-05-11T02:49:06.361Z,8.1
2019-05-11T02:50:15.664Z,8
2019-05-11T02:51:24.941Z,8
2019-05-11T02:52:34.294Z,8
2019-05-11T02:56:02.368Z,8
2019-05-11T02:57:11.718Z,8
2019-05-11T02:58:21.302Z,7.9
2019-05-11T02:59:30.561Z,8
2019-05-11T03:00:39.674Z,8
2019-05-11T03:01:49.038Z,8
2019-05-11T03:02:58.349Z,7.9
2019-05-11T03:04:07.846Z,8
2019-05-11T03:05:17.131Z,8
2019-05-11T03:06:26.372Z,8
2019-05-11T03:07:35.700Z,7.9
2019-05-11T03:08:45.074Z,7.9
2019-05-11T03:09:55.250Z,8
2019-05-11T03:11:03.867Z,7.9
2019-05-11T03:12:13.078Z,8
2019-05-11T03:13:22.413Z,8
2019-05-11T03:14:31.752Z,8
2019-05-11T03:15:41.101Z,8
2019-05-11T03:16:50.580Z,8
2019-05-11T03:17:59.811Z,8
2019-05-11T03:19:09.168Z,7.9
2019-05-11T03:20:18.468Z,7.9
2019-05-11T03:21:27.779Z,7.9
2019-05-11T03:22:37.125Z,7.8
2019-05-11T03:23:46.537Z,7.7
2019-05-11T03:24:55.792Z,7.7
2019-05-11T03:26:05.129Z,7.7
2019-05-11T03:27:14.472Z,7.8
2019-05-11T03:28:23.802Z,7.8
2019-05-11T03:29:33.157Z,7.8
2019-05-11T03:30:42.575Z,7.8
2019-05-11T03:31:51.856Z,7.9
2019-05-11T03:33:01.257Z,8
2019-05-11T03:34:10.567Z,8.1
2019-05-11T03:35:19.836Z,8.3
2019-05-11T03:36:29.188Z,8.5
2019-05-11T03:37:38.637Z,8.7
2019-05-11T03:38:47.852Z,8.9
2019-05-11T03:39:57.391Z,9
2019-05-11T03:42:15.890Z,9.5
2019-05-11T03:43:25.226Z,9.7
2019-05-11T03:44:34.608Z,10
2019-05-11T03:45:44.025Z,10.2
2019-05-11T03:46:53.408Z,10.5
2019-05-11T03:48:02.761Z,10.7
2019-05-11T03:49:12.151Z,10.8
2019-05-11T03:50:21.375Z,11.1
2019-05-11T03:51:30.718Z,11.1
2019-05-11T03:52:40.163Z,10.7
2019-05-11T03:53:49.418Z,9.9
2019-05-11T03:54:58.803Z,9.7
2019-05-11T03:56:08.200Z,9.3
2019-05-11T03:57:17.532Z,9.2
2019-05-11T03:58:27.024Z,9.1
2019-05-11T03:59:36.262Z,9.1
2019-05-11T04:00:45.673Z,9.2
2019-05-11T04:01:55.002Z,9.2
2019-05-11T04:03:04.374Z,9.4
2019-05-11T04:04:16.290Z,9.3
2019-05-11T04:05:23.110Z,9.3
2019-05-11T04:06:32.447Z,9.2
2019-05-11T04:07:41.875Z,9.1
2019-05-11T04:08:51.193Z,9.1
2019-05-11T04:10:00.620Z,9.1
2019-05-11T04:11:09.968Z,9.1
2019-05-11T04:12:33.783Z,9.1
2019-05-11T04:13:28.816Z,9.1
2019-05-11T04:14:38.054Z,9.2
2019-05-11T04:15:47.414Z,9.2
2019-05-11T04:16:56.851Z,9.2
2019-05-11T04:18:06.291Z,9.3
2019-05-11T04:19:15.645Z,9.3
2019-05-11T04:21:34.306Z,9.3
2019-05-11T04:22:43.658Z,9.3
2019-05-11T04:23:53.066Z,9.4
2019-05-11T04:25:02.680Z,9.4
2019-05-11T04:26:11.844Z,9.4
2019-05-11T04:27:21.163Z,9.5
2019-05-11T04:28:30.581Z,9.5
2019-05-11T04:29:39.921Z,9.4
2019-05-11T04:30:49.483Z,9.5
2019-05-11T04:31:58.721Z,9.5
2019-05-11T04:33:08.432Z,9.6
2019-05-11T04:34:17.516Z,9.6
2019-05-11T04:35:26.989Z,9.7
2019-05-11T04:36:36.231Z,9.7
2019-05-11T04:37:45.632Z,9.7
2019-05-11T04:38:55.001Z,9.6
2019-05-11T04:40:04.897Z,9.6
2019-05-11T04:41:13.820Z,9.6
2019-05-11T04:42:23.235Z,9.7
2019-05-11T04:43:32.568Z,9.7
2019-05-11T04:44:42.051Z,9.8
2019-05-11T04:45:52.463Z,9.7
2019-05-11T04:48:11.246Z,9.6
2019-05-11T04:49:20.660Z,9.6
2019-05-11T04:50:30.266Z,9.7
2019-05-11T04:51:39.461Z,9.7
2019-05-11T04:52:48.865Z,9.7
2019-05-11T04:53:58.179Z,9.8
2019-05-11T04:55:07.742Z,9.8
2019-05-11T04:56:17.104Z,9.7
2019-05-11T04:57:26.355Z,9.7
2019-05-11T04:58:35.759Z,9.7
2019-05-11T04:59:45.160Z,9.8
2019-05-11T05:00:54.551Z,9.9
2019-05-11T05:02:03.959Z,9.9
2019-05-11T05:03:13.365Z,10
2019-05-11T05:04:22.777Z,10
2019-05-11T05:05:32.120Z,10
2019-05-11T05:06:41.567Z,10
2019-05-11T05:07:50.993Z,10
2019-05-11T05:09:03.544Z,10.1
2019-05-11T05:10:13.863Z,10.2
2019-05-11T05:11:19.462Z,10.2
2019-05-11T05:12:28.811Z,10
2019-05-11T05:13:38.578Z,10.3
2019-05-11T05:14:47.726Z,10.3
2019-05-11T05:17:06.678Z,10.4
2019-05-11T05:18:15.906Z,10.3
2019-05-11T05:19:25.357Z,10.3
2019-05-11T05:20:34.772Z,10.3
2019-05-11T05:21:44.094Z,10.5
2019-05-11T05:22:53.528Z,10.2
2019-05-11T05:24:02.939Z,10.2
2019-05-11T05:25:12.368Z,10.6
2019-05-11T05:26:21.856Z,10.5
2019-05-11T05:28:40.632Z,10.7
2019-05-11T05:29:50.062Z,10.6
2019-05-11T05:30:59.523Z,10.6
2019-05-11T05:32:09.249Z,10.8
2019-05-11T05:33:18.470Z,10.9
2019-05-11T05:34:27.884Z,10.7
2019-05-11T05:35:37.192Z,10.7
2019-05-11T05:36:46.796Z,10.7
2019-05-11T05:37:56.071Z,10.8
2019-05-11T05:39:08.512Z,11.2
2019-05-11T05:40:15.107Z,11.3
2019-05-11T05:41:24.400Z,11.2
2019-05-11T05:42:33.818Z,10.8
2019-05-11T05:43:43.255Z,10.9
2019-05-11T05:44:52.712Z,11.4
2019-05-11T05:46:02.325Z,12.3
2019-05-11T05:48:21.204Z,11.9
2019-05-11T05:49:30.520Z,12.9
2019-05-11T05:50:40.395Z,12.3
2019-05-11T05:51:49.425Z,12.2
2019-05-11T05:52:58.987Z,12.3
2019-05-11T05:54:08.377Z,12.4
2019-05-11T05:55:17.937Z,12.4
2019-05-11T05:56:27.348Z,12.2
2019-05-11T05:57:36.813Z,11.7
2019-05-11T05:58:46.298Z,11.6
2019-05-11T05:59:55.841Z,12.7
2019-05-11T06:02:14.765Z,12.5
2019-05-11T06:03:24.602Z,13.2
2019-05-11T06:04:33.816Z,13.5
2019-05-11T06:05:43.339Z,12.4
2019-05-11T06:06:52.790Z,13.3
2019-05-11T06:08:02.216Z,13.3
2019-05-11T06:09:11.754Z,12.9
2019-05-11T06:10:21.856Z,14.2
2019-05-11T06:13:50.138Z,13
2019-05-11T06:14:59.359Z,13.8
2019-05-11T06:16:08.885Z,14.3
2019-05-11T06:17:18.386Z,14.8
2019-05-11T06:18:27.934Z,15.9
2019-05-11T06:19:37.664Z,17.1
2019-05-11T06:20:47.081Z,17.1
2019-05-11T06:21:56.711Z,15.7
2019-05-11T06:23:06.203Z,14.7
2019-05-11T06:24:15.810Z,15
2019-05-11T06:25:25.488Z,16.4
2019-05-11T06:26:35.075Z,14.9
2019-05-11T06:27:44.550Z,14.3
2019-05-11T06:28:54.240Z,14.3
2019-05-11T06:30:03.937Z,13.5
2019-05-11T06:31:13.423Z,13.5
2019-05-11T06:32:23.130Z,13.8
2019-05-11T06:33:32.517Z,15.3
2019-05-11T06:35:56.265Z,15.2
2019-05-11T06:37:05.346Z,17.1
2019-05-11T06:38:16.983Z,14.7
2019-05-11T06:39:26.738Z,16.4
2019-05-11T06:40:36.887Z,14.9
2019-05-11T06:41:48.637Z,14.5
2019-05-11T06:42:59.638Z,13.8
2019-05-11T06:44:11.201Z,13.4
2019-05-11T06:45:22.729Z,13.5
2019-05-11T06:46:35.062Z,13.5
2019-05-11T06:47:45.166Z,13.3
2019-05-11T06:48:56.816Z,13.4
2019-05-11T06:50:08.415Z,13.3
2019-05-11T06:51:20.126Z,14
2019-05-11T06:52:31.652Z,14.1
2019-05-11T06:53:43.274Z,13.6
2019-05-11T06:56:06.727Z,13.4
2019-05-11T06:57:18.208Z,14
2019-05-11T06:58:29.793Z,14.4
2019-05-11T06:59:41.435Z,16.6
2019-05-11T07:00:53.182Z,15.9
2019-05-11T07:02:04.727Z,15.2
2019-05-11T07:03:16.384Z,16
2019-05-11T07:04:28.034Z,14
2019-05-11T07:05:39.777Z,13.8
2019-05-11T07:06:51.357Z,14.8
2019-05-11T07:08:03.038Z,14
2019-05-11T07:09:14.693Z,14
2019-05-11T07:10:27.158Z,13.3
2019-05-11T07:11:38.001Z,13.1
2019-05-11T07:12:49.708Z,13.8
2019-05-11T07:14:17.763Z,14.8
2019-05-11T07:15:13.009Z,15.5
2019-05-11T07:16:24.627Z,16.1
2019-05-11T07:17:36.303Z,13.9
2019-05-11T07:18:48.039Z,13.9
2019-05-11T07:19:59.635Z,14.1
2019-05-11T07:21:11.389Z,14.3
2019-05-11T07:22:23.184Z,14.2
2019-05-11T07:23:34.773Z,13
2019-05-11T07:24:47.532Z,13.2
2019-05-11T07:26:00.212Z,13.3
2019-05-11T07:27:10.768Z,14.1
2019-05-11T07:28:22.627Z,13.9
2019-05-11T07:29:34.161Z,14.4
2019-05-11T07:30:45.797Z,14.7
2019-05-11T07:31:59.069Z,14.7
2019-05-11T07:33:09.199Z,14.3
2019-05-11T07:34:20.809Z,15.5
2019-05-11T07:35:32.517Z,14.9
2019-05-11T07:36:44.759Z,14.2
2019-05-11T07:37:58.019Z,13.5
2019-05-11T07:39:08.272Z,15
2019-05-11T07:40:19.387Z,14.6
2019-05-11T07:41:30.982Z,14.3
2019-05-11T07:42:42.851Z,13.5
2019-05-11T07:43:54.542Z,13.8
2019-05-11T07:45:08.586Z,14
2019-05-11T07:46:18.330Z,14.1
2019-05-11T07:47:29.673Z,13.8
2019-05-11T07:48:41.507Z,14.3
2019-05-11T07:49:53.151Z,15.8
2019-05-11T07:51:04.982Z,15
2019-05-11T07:52:18.120Z,16
2019-05-11T07:53:28.536Z,16.6
2019-05-11T07:54:40.308Z,16.3
2019-05-11T07:57:03.913Z,16.9
2019-05-11T07:58:15.777Z,16.9
2019-05-11T07:59:29.567Z,17.8
2019-05-11T08:00:41.399Z,15.5
2019-05-11T08:01:55.244Z,15.8
2019-05-11T08:03:10.616Z,16.4
2019-05-11T08:04:22.808Z,16
2019-05-11T08:05:34.320Z,16.2
2019-05-11T08:06:47.887Z,16.7
2019-05-11T08:07:59.480Z,15.5
2019-05-11T08:09:09.919Z,15.8
2019-05-11T08:10:22.062Z,15.2
2019-05-11T08:11:33.638Z,15.2
2019-05-11T08:12:47.460Z,16.4
2019-05-11T08:13:58.377Z,15
2019-05-11T08:15:13.155Z,15.7
2019-05-11T08:16:21.073Z,15.8
2019-05-11T08:17:32.934Z,15.1
2019-05-11T08:18:44.789Z,16.2
2019-05-11T08:19:58.027Z,16.4
2019-05-11T08:21:11.199Z,16.7
2019-05-11T08:22:23.039Z,16.3
2019-05-11T08:23:34.331Z,15.2
2019-05-11T08:24:48.085Z,16
2019-05-11T08:25:58.250Z,15
2019-05-11T08:27:09.871Z,15
2019-05-11T08:28:21.745Z,16.6
2019-05-11T08:29:33.593Z,15.7
2019-05-11T08:30:45.406Z,15.9
2019-05-11T08:31:58.020Z,17.3
2019-05-11T08:33:09.240Z,17.2
2019-05-11T08:34:23.044Z,17
2019-05-11T08:35:38.928Z,15.6
2019-05-11T08:36:48.764Z,17.6
2019-05-11T08:38:02.665Z,16.1
2019-05-11T08:39:18.169Z,16.8
2019-05-11T08:40:29.036Z,15.9
2019-05-11T08:41:42.573Z,15.4
2019-05-11T08:42:54.294Z,16.3
2019-05-11T08:44:06.126Z,15.9
2019-05-11T08:45:24.414Z,16
2019-05-11T08:46:34.259Z,17.3
2019-05-11T08:47:48.464Z,17.3
2019-05-11T08:49:01.531Z,19.3
2019-05-11T08:50:15.632Z,20.7
2019-05-11T08:51:29.265Z,20.4
2019-05-11T08:52:45.092Z,18.6
2019-05-11T08:53:58.983Z,17.7
2019-05-11T08:55:12.911Z,16.9
2019-05-11T08:56:28.857Z,16.2
2019-05-11T08:57:40.732Z,17.7
2019-05-11T08:58:55.223Z,18.4
2019-05-11T09:00:10.765Z,19.6
2019-05-11T09:01:24.444Z,17.4
2019-05-11T09:02:38.481Z,17.1
2019-05-11T09:03:52.118Z,18.2
2019-05-11T09:05:08.134Z,17.6
2019-05-11T09:06:19.857Z,17.7
2019-05-11T09:07:33.711Z,16.7
2019-05-11T09:08:49.257Z,17
2019-05-11T09:10:01.667Z,15.9
2019-05-11T09:11:13.363Z,15.7
2019-05-11T09:12:28.741Z,16.2
2019-05-11T09:13:40.901Z,17.2
2019-05-11T09:14:54.645Z,16.7
2019-05-11T09:16:07.855Z,15.8
2019-05-11T09:17:18.352Z,15.9
2019-05-11T09:18:32.003Z,17.2
2019-05-11T09:19:47.824Z,16.5
2019-05-11T09:20:59.387Z,17.4
2019-05-11T09:22:13.143Z,17
2019-05-11T09:23:34.200Z,15.3
2019-05-11T09:24:38.583Z,16.1
2019-05-11T09:25:50.271Z,15.9
2019-05-11T09:27:01.922Z,16.1
2019-05-11T09:28:13.680Z,15.8
2019-05-11T09:29:28.113Z,16.3
2019-05-11T09:30:38.939Z,15.4
2019-05-11T09:31:50.653Z,15.5
2019-05-11T09:33:02.301Z,15.5
2019-05-11T09:34:13.986Z,15.5
2019-05-11T09:35:25.661Z,15.9
2019-05-11T09:36:38.809Z,15.8
2019-05-11T09:37:49.015Z,16.8
2019-05-11T09:39:02.663Z,17.8
2019-05-11T09:40:18.473Z,18.4
2019-05-11T09:41:30.046Z,17
2019-05-11T09:42:43.751Z,17.6
2019-05-11T09:43:55.557Z,16.8
2019-05-11T09:45:09.074Z,16.9
2019-05-11T09:46:22.811Z,17.6
2019-05-11T09:47:34.484Z,17.4
2019-05-11T09:48:48.068Z,15.7
2019-05-11T09:49:58.301Z,16.2
2019-05-11T09:51:09.571Z,16.2
2019-05-11T09:52:21.399Z,15.8
2019-05-11T09:53:32.978Z,16.8
2019-05-11T09:54:44.693Z,17.2
2019-05-11T09:55:58.412Z,16.4
2019-05-11T09:57:08.501Z,16.8
2019-05-11T09:58:20.032Z,16.5
2019-05-11T09:59:31.418Z,16.7
2019-05-11T10:00:47.869Z,17.1
2019-05-11T10:01:58.900Z,17.3
2019-05-11T10:04:22.131Z,17.3
2019-05-11T10:05:38.181Z,16.4
2019-05-11T10:06:48.193Z,16.8
2019-05-11T10:07:59.552Z,15.8
2019-05-11T10:09:12.800Z,15.9
2019-05-11T10:10:24.753Z,15.5
2019-05-11T10:11:36.194Z,15.5
2019-05-11T10:12:52.809Z,15.9
2019-05-11T10:14:01.386Z,16
2019-05-11T10:15:13.498Z,15.4
2019-05-11T10:16:24.924Z,15.2
2019-05-11T10:17:38.195Z,16.2
2019-05-11T10:18:49.106Z,16
2019-05-11T10:19:59.527Z,15.4
2019-05-11T10:21:11.154Z,15.4
2019-05-11T10:22:22.831Z,15.4
2019-05-11T10:23:34.400Z,15.3
2019-05-11T10:24:47.671Z,15.4
2019-05-11T10:25:58.567Z,15.4
2019-05-11T10:27:09.438Z,15.8
2019-05-11T10:28:20.890Z,16.2
2019-05-11T10:29:33.965Z,15.8
2019-05-11T10:30:44.105Z,15.9
2019-05-11T10:31:55.702Z,16.1
2019-05-11T10:33:08.225Z,15.2
2019-05-11T10:34:19.095Z,15.3
2019-05-11T10:35:30.871Z,15.6
2019-05-11T10:36:42.347Z,16
2019-05-11T10:37:53.762Z,16.5
2019-05-11T10:39:07.327Z,16.5
2019-05-11T10:40:18.853Z,15.8
2019-05-11T10:41:28.956Z,15.6
2019-05-11T10:42:40.927Z,16.1
2019-05-11T10:43:52.566Z,16
2019-05-11T10:45:03.634Z,15.9
2019-05-11T10:46:19.030Z,15.6
2019-05-11T10:47:27.853Z,15.8
2019-05-11T10:48:38.957Z,15.8
2019-05-11T10:49:49.979Z,16.2
2019-05-11T10:51:01.569Z,15.6
2019-05-11T10:52:13.210Z,15.8
2019-05-11T10:53:24.971Z,15.4
2019-05-11T10:54:39.612Z,15.8
2019-05-11T10:55:48.189Z,15.7
2019-05-11T10:56:59.713Z,15.8
2019-05-11T10:58:11.494Z,16.3
2019-05-11T10:59:22.997Z,15.7
2019-05-11T11:00:34.550Z,15.8
2019-05-11T11:01:48.340Z,15.7
2019-05-11T11:02:58.366Z,15.8
2019-05-11T11:04:09.449Z,16.1
2019-05-11T11:05:21.031Z,16.2
2019-05-11T11:06:32.663Z,15.6
2019-05-11T11:07:44.261Z,15.7
2019-05-11T11:08:57.848Z,15.9
2019-05-11T11:11:19.152Z,16.8
2019-05-11T11:12:30.747Z,16.3
2019-05-11T11:13:42.487Z,16.7
2019-05-11T11:14:53.975Z,16
2019-05-11T11:16:05.604Z,16.3
2019-05-11T11:17:19.088Z,16.7
2019-05-11T11:18:28.951Z,17.2
2019-05-11T11:19:40.455Z,17.7
2019-05-11T11:20:52.101Z,17.4
2019-05-11T11:22:29.246Z,17.5
2019-05-11T11:23:17.234Z,17.1
2019-05-11T11:24:28.647Z,16
2019-05-11T11:25:38.612Z,16.1
2019-05-11T11:26:50.530Z,15.7
2019-05-11T11:28:01.841Z,15.1
2019-05-11T11:29:13.578Z,15.4
2019-05-11T11:30:25.179Z,15.7
2019-05-11T11:31:37.970Z,15.8
2019-05-11T11:32:48.471Z,15.3
2019-05-11T11:33:59.958Z,15.5
2019-05-11T11:35:11.737Z,15.8
2019-05-11T11:36:23.234Z,15.8
2019-05-11T11:37:34.941Z,15.8
2019-05-11T11:38:47.751Z,15.3
2019-05-11T11:39:59.913Z,15
2019-05-11T11:41:09.805Z,15.1
2019-05-11T11:42:21.718Z,15.6
2019-05-11T11:43:32.918Z,16.4
2019-05-11T11:44:44.477Z,16.6
2019-05-11T11:45:57.964Z,16.9
2019-05-11T11:47:08.655Z,17
2019-05-11T11:48:19.394Z,17.1
2019-05-11T11:49:31.006Z,17.1
2019-05-11T11:50:42.672Z,16.2
2019-05-11T11:51:54.290Z,16
2019-05-11T11:53:08.176Z,16.4
2019-05-11T11:54:18.149Z,16.4
2019-05-11T11:55:29.161Z,15.5
2019-05-11T11:56:40.677Z,15.8
2019-05-11T11:57:52.241Z,15.4
2019-05-11T11:59:03.852Z,15
2019-05-11T12:00:18.227Z,15.8
2019-05-11T12:01:28.281Z,15.9
2019-05-11T12:02:39.773Z,16
2019-05-11T12:03:52.614Z,15.9
2019-05-11T12:05:03.048Z,15.8
2019-05-11T12:06:18.131Z,15.4
2019-05-11T12:07:28.641Z,15.5
2019-05-11T12:08:39.715Z,15.3
2019-05-11T12:09:51.498Z,15.3
2019-05-11T12:11:02.887Z,15.1
2019-05-11T12:12:14.462Z,15.3
2019-05-11T12:13:27.442Z,15
2019-05-11T12:14:38.460Z,15.6
2019-05-11T12:15:49.315Z,15.8
2019-05-11T12:17:06.896Z,15.5
2019-05-11T12:18:12.429Z,15.5
2019-05-11T12:19:23.945Z,15.4
2019-05-11T12:20:35.527Z,15.7
2019-05-11T12:21:48.342Z,15.1
2019-05-11T12:22:58.880Z,15.2
2019-05-11T12:24:10.332Z,15.4
2019-05-11T12:25:21.876Z,15.6
2019-05-11T12:26:33.481Z,15.3
2019-05-11T12:27:44.970Z,14.9
2019-05-11T12:28:57.666Z,15
2019-05-11T12:30:08.923Z,14.9
2019-05-11T12:31:19.675Z,14.7
2019-05-11T12:32:31.322Z,14.4
2019-05-11T12:33:42.860Z,14.3
2019-05-11T12:34:54.416Z,14.2
2019-05-11T12:36:04.070Z,14.2
2019-05-11T12:37:13.536Z,14
2019-05-11T12:38:25.038Z,13.9
2019-05-11T12:39:34.597Z,14.1
2019-05-11T12:40:44.256Z,14.1
2019-05-11T12:41:53.685Z,14.2
2019-05-11T12:43:05.231Z,14.1
2019-05-11T12:44:18.740Z,14
2019-05-11T12:45:26.236Z,14
2019-05-11T12:46:36.702Z,13.9
2019-05-11T12:47:45.275Z,14
2019-05-11T12:48:56.598Z,14.1
2019-05-11T12:50:04.301Z,14.1
2019-05-11T12:51:14.022Z,14
2019-05-11T12:52:23.444Z,14
2019-05-11T12:53:32.904Z,14.1
2019-05-11T12:54:42.561Z,14.2
2019-05-11T12:55:51.884Z,14.1
2019-05-11T12:57:01.430Z,14.2
2019-05-11T12:58:11.059Z,14.2
2019-05-11T12:59:20.594Z,14
2019-05-11T13:00:31.321Z,13.8
2019-05-11T13:02:48.972Z,13.7
2019-05-11T13:03:58.499Z,13.8
2019-05-11T13:05:08.611Z,13.8
2019-05-11T13:06:19.014Z,13.7
2019-05-11T13:07:28.399Z,13.7
2019-05-11T13:08:38.703Z,13.8
2019-05-11T13:09:48.258Z,13.7
2019-05-11T13:10:55.637Z,13.7
2019-05-11T13:12:05.192Z,13.8
2019-05-11T13:13:14.568Z,13.6
2019-05-11T13:14:24.189Z,13.7
2019-05-11T13:15:33.815Z,13.7
2019-05-11T13:16:43.124Z,13.7
2019-05-11T13:17:52.673Z,13.8
2019-05-11T13:19:02.112Z,13.6
2019-05-11T13:20:12.935Z,13.6
2019-05-11T13:21:21.112Z,13.8
2019-05-11T13:22:30.627Z,13.9
2019-05-11T13:23:40.158Z,14
2019-05-11T13:24:49.713Z,13.9
2019-05-11T13:25:59.171Z,14
2019-05-11T13:27:09.179Z,13.9
2019-05-11T13:28:18.195Z,14
2019-05-11T13:29:28.619Z,14.3
2019-05-11T13:30:38.169Z,14
2019-05-11T13:31:48.552Z,13.9
2019-05-11T13:32:58.422Z,14
2019-05-11T13:34:09.839Z,13.8
2019-05-11T13:35:21.374Z,13.9
2019-05-11T13:36:32.760Z,14.1
2019-05-11T13:37:44.505Z,14.1
2019-05-11T13:38:55.772Z,14.3
2019-05-11T13:40:08.223Z,14.2
2019-05-11T13:41:19.168Z,14.2
2019-05-11T13:42:30.505Z,14.2
2019-05-11T13:43:42.209Z,14.6
2019-05-11T13:44:53.490Z,14.2
2019-05-11T13:46:04.982Z,14.4
2019-05-11T13:47:17.970Z,14.3
2019-05-11T13:48:28.174Z,14.3
2019-05-11T13:49:39.526Z,14.3
2019-05-11T13:50:50.983Z,14.5
2019-05-11T13:52:02.509Z,14.2
2019-05-11T13:53:14.053Z,14.3
2019-05-11T13:54:25.617Z,13.8
2019-05-11T13:55:38.727Z,14
2019-05-11T13:56:48.604Z,14.1
2019-05-11T13:58:00.200Z,13.9
2019-05-11T13:59:11.682Z,13.9
2019-05-11T14:00:23.238Z,13.8
2019-05-11T14:01:34.764Z,13.8
2019-05-11T14:02:47.908Z,14
2019-05-11T14:03:58.456Z,14.1
2019-05-11T14:05:09.276Z,14.1
2019-05-11T14:06:20.809Z,14.2
2019-05-11T14:07:32.305Z,14.4
2019-05-11T14:08:43.825Z,14.5
2019-05-11T14:09:55.721Z,14.3
2019-05-11T14:11:08.536Z,14.5
2019-05-11T14:12:18.427Z,14.4
2019-05-11T14:13:29.958Z,14.6
2019-05-11T14:14:41.718Z,14.7
2019-05-11T14:15:52.999Z,14.4
2019-05-11T14:17:04.699Z,14.3
2019-05-11T14:18:18.068Z,14.1
2019-05-11T14:19:28.925Z,14.2
2019-05-11T14:20:39.128Z,14
2019-05-11T14:21:50.741Z,14.1
2019-05-11T14:23:02.271Z,14.2
2019-05-11T14:24:13.674Z,14.1
2019-05-11T14:25:25.221Z,13.9
2019-05-11T14:26:38.538Z,13.8
2019-05-11T14:27:48.267Z,13.9
2019-05-11T14:28:59.765Z,14
2019-05-11T14:30:11.320Z,14.1
2019-05-11T14:32:34.359Z,14.1
2019-05-11T14:33:45.930Z,14.2
2019-05-11T14:34:57.850Z,13.9
2019-05-11T14:36:09.405Z,13.9
2019-05-11T14:37:20.405Z,14.1
2019-05-11T14:38:31.924Z,13.9
2019-05-11T14:39:43.549Z,13.8
2019-05-11T14:40:55.208Z,13.9
2019-05-11T14:42:07.653Z,14
2019-05-11T14:43:18.727Z,14.1
2019-05-11T14:44:29.462Z,13.9
2019-05-11T14:45:41.007Z,13.8
2019-05-11T14:46:52.616Z,13.7
2019-05-11T14:48:04.058Z,13.7
2019-05-11T14:49:15.508Z,13.7
2019-05-11T14:50:28.079Z,13.7
2019-05-11T14:51:39.205Z,13.7
2019-05-11T14:52:50.073Z,13.8
2019-05-11T14:54:01.652Z,13.9
2019-05-11T14:55:13.038Z,14
2019-05-11T14:56:24.735Z,14.1
2019-05-11T14:57:36.060Z,13.8
2019-05-11T14:58:49.195Z,13.8
2019-05-11T14:59:59.097Z,13.9
2019-05-11T15:01:10.572Z,13.9
2019-05-11T15:02:22.047Z,13.9
2019-05-11T15:03:33.552Z,13.9
2019-05-11T15:04:45.073Z,13.9
2019-05-11T15:05:58.222Z,13.9
2019-05-11T15:07:08.515Z,14
2019-05-11T15:08:19.586Z,14
2019-05-11T15:09:29.083Z,14.1
2019-05-11T15:10:38.706Z,14
2019-05-11T15:11:48.216Z,14
2019-05-11T15:12:59.056Z,14
2019-05-11T15:14:08.066Z,14
2019-05-11T15:15:18.613Z,14
2019-05-11T15:16:27.830Z,14
2019-05-11T15:17:35.664Z,14
2019-05-11T15:18:45.130Z,14.1
2019-05-11T15:19:54.641Z,14.2
2019-05-11T15:21:04.194Z,14.2
2019-05-11T15:22:13.757Z,14.2
2019-05-11T15:23:23.276Z,14.2
2019-05-11T15:24:32.676Z,14.2
2019-05-11T15:25:42.230Z,14.2
2019-05-11T15:26:52.009Z,14.2
2019-05-11T15:28:01.285Z,14.2
2019-05-11T15:29:11.914Z,14.2
2019-05-11T15:30:21.633Z,14
2019-05-11T15:31:31.041Z,13.7
2019-05-11T15:32:40.490Z,13.8
2019-05-11T15:33:50.134Z,13.9
2019-05-11T15:34:59.591Z,13.8
2019-05-11T15:36:08.965Z,13.8
2019-05-11T15:37:18.614Z,13.6
2019-05-11T15:38:28.472Z,13.7
2019-05-11T15:39:37.831Z,13.7
2019-05-11T15:40:48.721Z,13.7
2019-05-11T15:42:08.987Z,13.6
2019-05-11T15:43:08.699Z,13.5
2019-05-11T15:44:18.218Z,13.6
2019-05-11T15:45:27.671Z,13.6
2019-05-11T15:46:35.551Z,13.3
2019-05-11T15:47:45.128Z,13.3
2019-05-11T15:49:00.130Z,13.3
2019-05-11T15:50:04.023Z,13.4
2019-05-11T15:51:13.548Z,13.4
2019-05-11T15:52:23.009Z,13.4
2019-05-11T15:53:32.523Z,13.4
2019-05-11T15:54:42.060Z,13.4
2019-05-11T15:55:51.716Z,13.3
2019-05-11T15:57:00.982Z,13.3
2019-05-11T15:58:10.579Z,13.3
2019-05-11T15:59:20.043Z,13.3
2019-05-11T16:00:29.505Z,13.2
2019-05-11T16:01:41.103Z,13.2
2019-05-11T16:02:49.116Z,13.2
2019-05-11T16:03:58.246Z,13.2
2019-05-11T16:05:08.557Z,13.2
2019-05-11T16:06:18.506Z,13.2
2019-05-11T16:07:28.123Z,13.2
2019-05-11T16:08:37.591Z,13.2
2019-05-11T16:09:45.697Z,13.2
2019-05-11T16:10:54.909Z,13.2
2019-05-11T16:13:13.892Z,13
2019-05-11T16:14:23.679Z,13
2019-05-11T16:15:35.466Z,12.9
2019-05-11T16:16:42.373Z,12.9
2019-05-11T16:17:51.888Z,12.9
2019-05-11T16:19:11.557Z,12.9
2019-05-11T16:21:20.257Z,12.8
2019-05-11T16:22:29.840Z,12.8
2019-05-11T16:23:39.241Z,12.8
2019-05-11T16:24:48.717Z,12.7